Time;durP1;ratioP1;P1;durP2;ratioP2;P2;SDS_P1;SDS_P2;PMS_P1;PMS_P2;Temp;Humidity;BMP_temperature;BMP_pressure;BME280_temperature;BME280_humidity;BME280_pressure;Samples;Min_cycle;Max_cycle;Signal;HPM_P1;HPM_P2
2022/08/10 00:01:22;;;;;;;5.65;3.67;;;;;;;20.15;50.81;94964.75;5070306;28;20035;-79
2022/08/10 00:03:48;;;;;;;5.95;3.72;;;;;;;20.01;50.79;94932.09;5070187;28;20031;-80
2022/08/10 00:06:13;;;;;;;5.00;3.83;;;;;;;19.90;51.65;94927.28;5069379;28;20404;-79
2022/08/10 00:08:39;;;;;;;4.93;3.63;;;;;;;19.37;52.49;94877.22;5068745;28;20410;-79
2022/08/10 00:11:05;;;;;;;4.57;3.72;;;;;;;19.93;52.72;94974.38;5070153;28;20033;-79
2022/08/10 00:13:30;;;;;;;4.32;3.92;;;;;;;19.57;52.15;94914.41;5052377;28;20037;-79
2022/08/10 00:15:56;;;;;;;4.78;4.07;;;;;;;19.64;51.70;94931.16;5071727;28;20078;-80
2022/08/10 00:18:22;;;;;;;4.40;3.92;;;;;;;19.55;52.64;94914.56;5072140;28;20460;-80
2022/08/10 00:20:48;;;;;;;5.03;3.83;;;;;;;19.47;52.51;94901.47;5055358;28;20082;-79
2022/08/10 00:23:13;;;;;;;5.55;3.97;;;;;;;19.71;52.25;94926.81;5073028;28;20024;-80
2022/08/10 00:25:39;;;;;;;5.55;3.83;;;;;;;19.56;52.54;94907.50;5073602;28;20400;-80
2022/08/10 00:28:04;;;;;;;4.82;3.72;;;;;;;19.55;52.20;94913.75;5073765;28;20075;-79
2022/08/10 00:30:30;;;;;;;4.80;4.03;;;;;;;19.49;52.62;94915.28;5072456;28;20475;-80
2022/08/10 00:32:55;;;;;;;4.78;4.07;;;;;;;19.43;52.93;94908.13;5072369;28;20103;-80
2022/08/10 00:35:21;;;;;;;6.00;3.88;;;;;;;19.52;53.21;94930.75;5073570;28;20041;-78
2022/08/10 00:37:46;;;;;;;6.32;3.95;;;;;;;19.37;53.44;94916.75;5073451;28;20029;-79
2022/08/10 00:40:12;;;;;;;4.95;3.80;;;;;;;19.62;53.33;94941.03;5071864;28;20090;-80
2022/08/10 00:42:37;;;;;;;5.88;4.13;;;;;;;19.47;52.97;94924.38;5071513;28;20035;-79
2022/08/10 00:45:03;;;;;;;5.32;4.05;;;;;;;19.31;53.48;94906.94;5073235;28;20504;-79
2022/08/10 00:47:29;;;;;;;5.60;3.95;;;;;;;19.37;52.65;94922.00;5072293;28;20025;-80
2022/08/10 00:49:55;;;;;;;5.53;3.80;;;;;;;19.38;51.96;94897.28;5055720;28;20119;-79
2022/08/10 00:52:23;;;;;;;7.43;4.15;;;;;;;19.43;52.47;94945.00;5072786;28;20033;-79
2022/08/10 00:54:48;;;;;;;6.68;3.67;;;;;;;19.65;52.43;94961.75;5071102;28;20102;-79
2022/08/10 00:57:14;;;;;;;4.57;3.55;;;;;;;19.36;52.77;94917.72;5073102;28;20025;-80
2022/08/10 00:59:39;;;;;;;6.28;4.07;;;;;;;19.37;51.79;94917.56;5071521;28;20044;-80
2022/08/10 01:02:05;;;;;;;4.78;4.10;;;;;;;19.63;53.00;94969.81;5073004;28;20029;-79
2022/08/10 01:04:31;;;;;;;4.80;4.07;;;;;;;19.60;53.04;94959.66;5073407;28;20027;-80
2022/08/10 01:07:21;;;;;;;5.70;3.90;;;;;;;19.66;52.35;94970.50;5071809;28;20040;-78
2022/08/10 01:09:53;;;;;;;5.93;4.00;;;;;;;19.68;52.13;94963.25;5067081;28;20041;-80
2022/08/10 01:12:27;;;;;;;6.32;3.70;;;;;;;19.23;52.59;94904.38;5072783;28;20445;-80
2022/08/10 01:15:07;;;;;;;4.43;3.90;;;;;;;19.69;52.34;94967.50;5071889;28;20056;-80
2022/08/10 01:17:53;;;;;;;4.82;3.83;;;;;;;19.60;52.11;94961.47;5072695;28;20074;-80
2022/08/10 01:20:30;;;;;;;4.57;3.85;;;;;;;19.39;51.99;94917.38;5071919;28;20098;-79
2022/08/10 01:23:31;;;;;;;5.50;3.88;;;;;;;19.66;52.32;94965.22;5072528;28;20490;-80
2022/08/10 01:26:00;;;;;;;;;;;;;;;19.61;52.72;94971.00;5071974;28;20090;-79
2022/08/10 01:29:03;;;;;;;5.18;4.05;;;;;;;19.62;52.82;94967.38;5071677;28;19927;-79
2022/08/10 01:31:33;;;;;;;6.03;3.95;;;;;;;19.14;52.68;94912.31;5049797;28;20041;-80
2022/08/10 01:34:04;;;;;;;4.55;4.15;;;;;;;19.12;52.59;94913.50;5043726;28;20045;-80
2022/08/10 01:36:37;;;;;;;4.35;3.95;;;;;;;19.30;51.97;94918.44;5051128;28;20029;-79
2022/08/10 01:39:03;;;;;;;3.70;3.35;;;;;;;19.29;53.33;94915.00;5052570;28;20057;-79
2022/08/10 01:41:35;;;;;;;4.97;4.10;;;;;;;19.52;53.04;94964.19;5067372;28;20531;-79
2022/08/10 01:44:04;;;;;;;4.80;3.95;;;;;;;19.54;53.35;94944.56;5051091;28;20088;-80
2022/08/10 01:46:30;;;;;;;4.38;3.92;;;;;;;19.14;53.55;94898.34;5050740;28;20048;-80
2022/08/10 01:48:56;;;;;;;6.28;4.13;;;;;;;19.11;53.08;94901.31;5051022;28;20063;-80
2022/08/10 01:51:34;;;;;;;5.22;3.85;;;;;;;19.28;53.18;94923.06;5060339;28;20113;-79
2022/08/10 01:54:02;;;;;;;6.80;3.90;;;;;;;19.48;52.78;94950.56;5071619;28;20116;-79
2022/08/10 01:56:33;;;;;;;5.05;3.65;;;;;;;19.47;53.13;94943.63;5070611;28;20421;-79
2022/08/10 01:59:03;;;;;;;4.88;4.40;;;;;;;19.41;52.92;94944.34;5070638;28;20082;-79
2022/08/10 02:01:31;;;;;;;5.95;3.72;;;;;;;19.06;52.99;94895.78;5054827;28;20029;-79
2022/08/10 02:03:59;;;;;;;4.70;3.90;;;;;;;19.15;53.13;94903.41;5070632;28;20036;-78
2022/08/10 02:06:25;;;;;;;6.45;3.88;;;;;;;19.13;52.94;94900.13;5053616;28;20111;-79
2022/08/10 02:08:51;;;;;;;4.35;3.95;;;;;;;19.31;53.08;94946.44;5053353;28;20089;-79
2022/08/10 02:11:16;;;;;;;5.75;4.35;;;;;;;19.06;53.22;94899.22;5071340;28;20032;-79
2022/08/10 02:13:42;;;;;;;6.32;3.90;;;;;;;18.99;54.57;94893.03;5053252;28;20041;-80
2022/08/10 02:16:08;;;;;;;5.80;4.65;;;;;;;19.36;53.65;94942.25;5071384;28;20490;-79
2022/08/10 02:18:33;;;;;;;5.45;4.07;;;;;;;19.41;52.87;94944.34;5070223;28;20063;-80
2022/08/10 02:21:00;;;;;;;4.82;4.00;;;;;;;19.38;53.10;94940.25;5070202;28;20123;-79
2022/08/10 02:23:28;;;;;;;5.55;4.03;;;;;;;19.11;53.19;94902.16;5070016;28;20024;-79
2022/08/10 02:25:54;;;;;;;4.47;4.07;;;;;;;18.94;53.66;94882.19;5070236;28;20056;-79
2022/08/10 02:28:21;;;;;;;4.45;3.92;;;;;;;19.30;53.67;94942.94;5069168;28;20051;-79
2022/08/10 02:30:46;;;;;;;5.68;4.00;;;;;;;19.17;53.34;94911.97;5053356;28;20059;-79
2022/08/10 02:33:12;;;;;;;5.72;4.30;;;;;;;18.97;54.04;94889.75;5069709;28;20024;-79
2022/08/10 02:35:37;;;;;;;5.35;4.15;;;;;;;19.03;54.33;94889.06;5069510;28;20028;-79
2022/08/10 02:38:05;;;;;;;5.45;4.07;;;;;;;19.22;54.63;94934.31;5053178;28;20036;-79
2022/08/10 02:40:31;;;;;;;6.93;4.30;;;;;;;18.96;56.16;94909.16;5068515;28;20036;-79
2022/08/10 02:43:02;;;;;;;4.90;4.30;;;;;;;19.21;55.86;94951.91;5069178;28;20039;-79
2022/08/10 02:45:32;;;;;;;6.85;4.10;;;;;;;18.59;56.25;94897.56;5071193;28;20113;-79
2022/08/10 02:48:28;;;;;;;5.53;4.15;;;;;;;18.87;56.88;94947.09;5053342;28;20028;-79
2022/08/10 02:50:58;;;;;;;5.30;4.13;;;;;;;18.38;56.88;94886.84;5061916;28;20029;-79
2022/08/10 02:53:29;;;;;;;9.35;4.97;;;;;;;18.60;57.41;94946.53;5053117;28;20052;-79
2022/08/10 02:56:04;;;;;;;5.55;4.00;;;;;;;18.34;57.23;94906.59;5068960;28;20085;-79
2022/08/10 02:58:36;;;;;;;4.78;4.13;;;;;;;18.51;57.92;94963.38;5069884;28;20033;-79
2022/08/10 03:01:07;;;;;;;6.78;4.50;;;;;;;18.24;57.39;94919.94;5069541;28;20024;-79
2022/08/10 03:03:58;;;;;;;5.07;4.13;;;;;;;18.04;58.07;94916.91;5069580;28;20047;-79
2022/08/10 03:06:25;;;;;;;5.40;4.20;;;;;;;18.35;57.94;94948.47;5063432;28;20047;-79
2022/08/10 03:08:51;;;;;;;5.57;3.75;;;;;;;18.19;57.65;94961.69;5052986;28;20064;-79
2022/08/10 03:11:22;;;;;;;4.35;3.83;;;;;;;17.73;57.93;94903.69;5069157;28;20072;-78
2022/08/10 03:13:48;;;;;;;5.55;4.90;;;;;;;17.86;58.46;94919.75;5070706;28;20032;-80
2022/08/10 03:16:14;;;;;;;6.82;4.70;;;;;;;17.64;59.29;94908.13;5052750;28;20025;-79
2022/08/10 03:18:39;;;;;;;5.15;4.30;;;;;;;17.72;59.59;94944.03;5070710;28;20040;-79
2022/08/10 03:21:05;;;;;;;5.57;4.10;;;;;;;17.63;59.36;94909.94;5070458;28;20032;-79
2022/08/10 03:23:30;;;;;;;5.25;4.15;;;;;;;17.57;59.50;94923.72;5070643;28;20029;-79
2022/08/10 03:25:56;;;;;;;5.30;4.35;;;;;;;17.54;59.42;94921.44;5068926;28;20486;-79
2022/08/10 03:28:23;;;;;;;5.70;4.28;;;;;;;17.54;59.69;94918.81;5032534;28;20079;-79
2022/08/10 03:30:48;;;;;;;4.68;4.18;;;;;;;17.95;59.27;94979.19;5065718;28;20032;-79
2022/08/10 03:33:14;;;;;;;4.80;3.90;;;;;;;17.76;59.29;94963.75;5050496;28;20029;-79
2022/08/10 03:35:39;;;;;;;5.82;4.50;;;;;;;17.30;60.42;94940.69;5059850;28;20087;-79
2022/08/10 03:38:05;;;;;;;5.13;4.63;;;;;;;17.25;60.52;94923.78;5070307;28;20074;-79
2022/08/10 03:40:33;;;;;;;7.00;4.45;;;;;;;17.31;60.72;94963.31;5069380;28;20024;-79
2022/08/10 03:42:58;;;;;;;5.40;4.30;;;;;;;17.58;60.57;94982.34;5068777;28;20106;-79
2022/08/10 03:45:24;;;;;;;6.57;4.32;;;;;;;17.31;60.43;94938.88;5069546;28;20040;-79
2022/08/10 03:47:50;;;;;;;5.05;4.50;;;;;;;17.39;60.98;94986.13;5069252;28;20497;-80
2022/08/10 03:50:15;;;;;;;6.00;4.07;;;;;;;17.46;60.26;94994.97;5071215;28;20040;-80
2022/08/10 03:52:41;;;;;;;6.68;4.40;;;;;;;17.16;60.17;94941.31;5073186;28;20055;-79
2022/08/10 03:55:07;;;;;;;5.95;4.40;;;;;;;17.11;61.14;94956.75;5056360;28;20048;-79
2022/08/10 03:57:32;;;;;;;5.40;3.95;;;;;;;16.94;60.78;94927.88;5072419;28;20490;-80
2022/08/10 03:59:58;;;;;;;4.72;3.90;;;;;;;17.42;60.59;94997.13;5073106;28;20029;-79
2022/08/10 04:02:24;;;;;;;5.43;4.40;;;;;;;17.24;61.53;94987.75;5072716;28;20024;-79
2022/08/10 04:04:49;;;;;;;4.57;4.03;;;;;;;17.45;61.34;95003.03;5072860;28;20041;-79
2022/08/10 04:07:15;;;;;;;5.45;4.32;;;;;;;17.13;60.56;94946.91;5063014;28;20033;-79
2022/08/10 04:09:41;;;;;;;4.22;3.83;;;;;;;17.13;60.84;94936.41;5052869;28;20037;-79
2022/08/10 04:12:06;;;;;;;6.07;3.92;;;;;;;17.19;60.82;94938.41;5059416;28;20035;-81
2022/08/10 04:14:32;;;;;;;4.53;3.88;;;;;;;17.55;60.99;94993.16;5074114;28;20032;-79
2022/08/10 04:16:57;;;;;;;7.75;4.15;;;;;;;17.14;61.45;94948.56;5073171;28;20068;-78
2022/08/10 04:19:23;;;;;;;4.70;4.20;;;;;;;17.65;60.84;94999.06;5060177;28;20486;-79
2022/08/10 04:22:22;;;;;;;4.75;4.22;;;;;;;18.00;60.58;95002.34;5063821;28;20032;-78
2022/08/10 04:24:50;;;;;;;4.15;3.72;;;;;;;18.42;59.34;95009.13;5052601;28;20029;-79
2022/08/10 04:27:15;;;;;;;5.20;4.15;;;;;;;18.34;60.08;95012.59;5056869;28;20060;-80
2022/08/10 04:29:42;;;;;;;5.15;4.03;;;;;;;18.26;59.96;94962.66;5074002;28;20063;-79
2022/08/10 04:32:09;;;;;;;5.20;4.20;;;;;;;18.66;58.91;94963.44;5039197;28;20028;-80
2022/08/10 04:34:34;;;;;;;4.20;3.80;;;;;;;18.53;59.20;94950.88;5073770;28;20028;-79
2022/08/10 04:37:03;;;;;;;4.90;4.22;;;;;;;18.47;59.98;94956.78;5072468;28;20035;-79
2022/08/10 04:39:29;;;;;;;4.47;4.07;;;;;;;18.94;58.34;94948.00;5071669;28;20479;-79
2022/08/10 04:41:54;;;;;;;4.95;4.18;;;;;;;20.01;56.88;95006.72;5072269;28;20024;-79
2022/08/10 04:44:20;;;;;;;4.78;3.90;;;;;;;20.28;55.93;94967.53;5071924;28;20111;-79
2022/08/10 04:46:45;;;;;;;6.35;4.20;;;;;;;21.02;54.68;94990.38;5060874;28;20418;-80
2022/08/10 04:49:11;;;;;;;5.70;4.20;;;;;;;22.43;50.06;94941.88;5053178;28;20426;-80
2022/08/10 04:51:36;;;;;;;5.70;4.25;;;;;;;23.42;47.56;94940.47;5053053;28;20031;-80
2022/08/10 04:54:02;;;;;;;5.05;3.90;;;;;;;24.55;45.22;94947.50;5052957;28;20048;-80
2022/08/10 04:56:29;;;;;;;4.93;3.65;;;;;;;26.01;41.94;94963.34;5072164;28;20462;-79
2022/08/10 04:58:55;;;;;;;5.68;4.10;;;;;;;27.15;39.80;94995.69;5073390;28;20056;-85
2022/08/10 05:01:20;;;;;;;4.43;3.72;;;;;;;27.80;37.96;94957.66;5071605;28;20025;-84
2022/08/10 05:03:46;;;;;;;4.55;4.00;;;;;;;29.51;34.65;94990.31;5070450;28;20032;-84
2022/08/10 05:06:11;;;;;;;7.72;3.63;;;;;;;30.73;32.53;94992.22;5049932;28;20031;-84
2022/08/10 05:08:37;;;;;;;7.70;3.80;;;;;;;31.82;29.93;94987.78;5072929;28;20123;-83
2022/08/10 05:11:02;;;;;;;4.88;3.75;;;;;;;32.15;29.87;94993.16;5068109;28;20029;-85
2022/08/10 05:13:28;;;;;;;7.20;4.00;;;;;;;30.13;31.55;94995.63;5063077;28;20071;-85
2022/08/10 05:15:55;;;;;;;4.70;3.83;;;;;;;27.16;37.36;94952.03;5066893;28;20029;-81
2022/08/10 05:18:21;;;;;;;4.45;3.60;;;;;;;25.81;41.24;94947.53;5061372;28;20193;-84
2022/08/10 05:20:46;;;;;;;7.03;4.22;;;;;;;25.62;41.77;94945.84;5072554;28;20502;-80
2022/08/10 05:23:12;;;;;;;6.50;4.57;;;;;;;25.63;41.30;94931.50;5070995;28;20051;-84
2022/08/10 05:25:38;;;;;;;6.43;4.47;;;;;;;26.09;41.07;94991.53;5065579;28;20494;-84
2022/08/10 05:28:04;;;;;;;7.35;4.90;;;;;;;25.77;41.30;94970.31;5070452;28;20501;-84
2022/08/10 05:30:29;;;;;;;6.18;3.90;;;;;;;25.76;41.17;94962.53;5068973;28;20478;-79
2022/08/10 05:32:56;;;;;;;11.45;4.78;;;;;;;25.93;41.25;95000.06;5071395;28;20025;-84
2022/08/10 05:35:21;;;;;;;5.38;4.40;;;;;;;25.64;41.94;94975.72;5043450;28;20116;-83
2022/08/10 05:37:47;;;;;;;7.57;4.50;;;;;;;25.63;41.74;94945.66;5071371;28;20032;-84
2022/08/10 05:40:12;;;;;;;7.03;4.88;;;;;;;25.83;40.86;94968.63;5071431;28;20037;-84
2022/08/10 05:42:38;;;;;;;5.53;4.50;;;;;;;25.90;40.89;94974.69;5070586;28;20120;-84
2022/08/10 05:45:04;;;;;;;5.25;4.30;;;;;;;25.91;41.30;94965.72;5072456;28;20024;-84
2022/08/10 05:47:30;;;;;;;8.05;4.80;;;;;;;25.91;40.66;94960.38;5070087;28;20375;-84
2022/08/10 05:49:56;;;;;;;4.90;4.45;;;;;;;26.00;41.68;94952.94;5070441;28;20468;-85
2022/08/10 05:52:21;;;;;;;6.22;4.63;;;;;;;26.44;40.57;94996.28;5063935;28;20025;-84
2022/08/10 05:54:47;;;;;;;7.68;5.15;;;;;;;26.16;41.50;94994.97;5064135;28;20060;-84
2022/08/10 05:57:14;;;;;;;5.97;5.38;;;;;;;25.58;42.59;94956.13;5059988;28;20029;-84
2022/08/10 05:59:43;;;;;;;9.93;5.60;;;;;;;25.67;43.40;94993.09;5060177;28;20029;-91
2022/08/10 06:02:09;;;;;;;8.15;5.40;;;;;;;25.79;43.62;95005.47;5047398;28;20016;-83
2022/08/10 06:04:39;;;;;;;8.82;5.88;;;;;;;25.75;43.75;94984.84;5059444;28;20032;-84
2022/08/10 06:07:05;;;;;;;9.15;5.40;;;;;;;25.57;43.69;94954.47;5051816;28;20031;-83
2022/08/10 06:09:31;;;;;;;8.75;5.90;;;;;;;25.84;43.28;94988.88;5058900;28;20029;-83
2022/08/10 06:11:57;;;;;;;7.28;6.07;;;;;;;25.67;43.88;94961.19;5059033;28;20098;-80
2022/08/10 06:17:07;;;;;;;7.68;5.97;;;;;;;25.85;43.38;94955.91;5060810;28;20426;-82
2022/08/10 06:19:33;;;;;;;6.93;5.65;;;;;;;26.23;42.64;95005.53;5059140;28;20040;-88
2022/08/10 06:22:00;;;;;;;9.55;5.20;;;;;;;25.94;42.50;94948.50;5079896;28;20395;-83
2022/08/10 06:24:26;;;;;;;6.85;4.90;;;;;;;26.16;41.10;94976.31;5061535;28;20031;-83
2022/08/10 06:26:52;;;;;;;6.20;5.07;;;;;;;25.92;41.76;94939.91;5063471;28;20035;-92
2022/08/10 06:29:17;;;;;;;8.27;5.57;;;;;;;26.16;42.13;94972.81;5049777;28;20036;-85
2022/08/10 06:31:46;;;;;;;8.05;5.40;;;;;;;26.54;41.45;94998.47;5062459;28;20020;-87
2022/08/10 06:34:11;;;;;;;7.85;5.45;;;;;;;26.68;41.29;95002.63;5059463;28;20128;-91
2022/08/10 06:36:37;;;;;;;8.35;5.05;;;;;;;26.78;41.31;94999.44;5059338;28;20151;-89
2022/08/10 06:39:03;;;;;;;6.47;5.10;;;;;;;26.78;40.50;94986.13;5063729;28;20348;-88
2022/08/10 06:41:28;;;;;;;6.40;4.85;;;;;;;26.83;39.12;94973.75;5061186;28;20033;-86
2022/08/10 06:44:03;;;;;;;5.93;5.15;;;;;;;26.95;39.18;95003.94;5035844;28;20024;-88
2022/08/10 06:46:28;;;;;;;6.63;5.65;;;;;;;26.98;40.21;94994.69;5044221;28;20052;-87
2022/08/10 06:48:56;;;;;;;7.28;5.70;;;;;;;27.14;39.83;95002.06;5051910;28;20506;-88
2022/08/10 06:51:29;;;;;;;6.53;5.80;;;;;;;27.05;40.81;94983.91;5041818;28;20485;-79
2022/08/10 06:54:00;;;;;;;11.80;6.22;;;;;;;27.03;39.99;94952.19;5063769;28;20052;-82
2022/08/10 06:56:27;;;;;;;10.98;6.45;;;;;;;27.20;39.97;94959.56;5049758;28;20116;-81
2022/08/10 06:58:55;;;;;;;10.38;6.65;;;;;;;27.39;40.48;94999.28;5062743;28;20047;-82
2022/08/10 07:01:23;;;;;;;7.53;5.82;;;;;;;27.34;39.16;94979.66;5066025;28;20024;-81
2022/08/10 07:03:55;;;;;;;6.60;5.68;;;;;;;27.29;39.12;94969.66;5070294;28;20116;-81
2022/08/10 07:06:20;;;;;;;6.38;5.65;;;;;;;27.23;38.57;94961.78;5069525;28;20473;-82
2022/08/10 07:08:46;;;;;;;8.82;7.07;;;;;;;27.47;38.60;94976.81;5069478;28;20039;-82
2022/08/10 07:11:11;;;;;;;7.20;6.50;;;;;;;27.31;39.49;94967.59;5067517;28;20426;-82
2022/08/10 07:13:37;;;;;;;10.73;6.63;;;;;;;27.30;39.43;94968.66;5067056;28;20411;-81
2022/08/10 07:16:04;;;;;;;11.00;6.30;;;;;;;27.49;39.74;94977.38;5067389;28;20028;-79
2022/08/10 07:18:30;;;;;;;7.85;5.70;;;;;;;27.62;38.03;94982.50;5067181;28;20521;-79
2022/08/10 07:20:55;;;;;;;5.93;5.00;;;;;;;27.83;36.48;94999.03;5067294;28;20041;-80
2022/08/10 07:23:21;;;;;;;7.45;5.45;;;;;;;27.72;36.21;94955.28;5067197;28;20082;-80
2022/08/10 07:25:48;;;;;;;8.45;5.53;;;;;;;27.82;37.04;94954.72;5052248;28;20402;-79
2022/08/10 07:28:13;;;;;;;6.90;6.10;;;;;;;27.86;37.75;94961.25;5072552;28;20059;-80
2022/08/10 07:30:39;;;;;;;7.22;6.28;;;;;;;28.20;37.33;94994.31;5071505;28;20032;-79
2022/08/10 07:33:05;;;;;;;7.55;6.13;;;;;;;28.16;37.64;95005.69;5071629;28;20033;-79
2022/08/10 07:35:31;;;;;;;8.27;6.57;;;;;;;28.00;37.11;94962.63;5055806;28;20082;-78
2022/08/10 07:37:56;;;;;;;7.57;6.80;;;;;;;27.92;37.58;94954.16;5057019;28;20025;-80
2022/08/10 07:40:22;;;;;;;10.18;6.28;;;;;;;28.23;37.77;94985.03;5074641;28;20036;-79
2022/08/10 07:42:50;;;;;;;7.32;6.03;;;;;;;28.11;37.37;94960.19;5074554;28;20024;-80
2022/08/10 07:45:15;;;;;;;7.20;6.50;;;;;;;28.12;37.63;94953.81;5073344;28;20082;-80
2022/08/10 07:47:47;;;;;;;8.07;6.35;;;;;;;28.03;37.49;94940.81;5073475;28;20037;-80
2022/08/10 07:50:15;;;;;;;7.97;6.70;;;;;;;28.36;36.99;94990.16;5075424;28;20039;-80
2022/08/10 07:52:40;;;;;;;11.18;6.60;;;;;;;28.10;36.64;94947.88;5074244;28;20032;-80
2022/08/10 07:55:07;;;;;;;8.35;6.55;;;;;;;28.20;36.47;94954.28;5073326;28;20053;-80
2022/08/10 07:57:33;;;;;;;7.10;6.40;;;;;;;28.41;37.03;94976.06;5056990;28;20450;-80
2022/08/10 08:00:04;;;;;;;7.93;6.60;;;;;;;28.29;37.59;94952.06;5074940;28;20040;-79
2022/08/10 08:02:33;;;;;;;8.48;6.75;;;;;;;28.42;37.04;94945.66;5072946;28;20491;-79
2022/08/10 08:05:00;;;;;;;8.32;6.57;;;;;;;28.63;36.51;94970.97;5072820;28;20123;-79
2022/08/10 08:07:26;;;;;;;9.85;6.75;;;;;;;28.65;36.60;94971.53;5072916;28;20092;-79
2022/08/10 08:09:52;;;;;;;7.13;6.28;;;;;;;28.09;36.23;94940.94;5072971;28;20032;-79
2022/08/10 08:12:17;;;;;;;10.85;6.85;;;;;;;28.48;36.11;94969.59;5072795;28;20039;-79
2022/08/10 08:14:43;;;;;;;8.95;6.88;;;;;;;28.31;37.16;94925.94;5073060;28;20036;-79
2022/08/10 08:17:09;;;;;;;7.95;6.53;;;;;;;28.39;35.70;94933.59;5055890;28;20052;-79
2022/08/10 08:19:34;;;;;;;7.22;6.13;;;;;;;28.39;35.34;94938.94;5074303;28;20040;-80
2022/08/10 08:22:00;;;;;;;7.82;5.95;;;;;;;28.49;35.39;94949.03;5072628;28;20021;-79
2022/08/10 08:24:26;;;;;;;7.25;5.68;;;;;;;28.60;35.10;94966.09;5072465;28;20075;-80
2022/08/10 08:26:52;;;;;;;7.32;6.00;;;;;;;28.78;35.58;94973.97;5072491;28;20024;-80
2022/08/10 08:29:17;;;;;;;7.78;6.35;;;;;;;28.67;35.03;94940.06;5072435;28;20109;-79
2022/08/10 08:31:43;;;;;;;7.47;6.07;;;;;;;29.03;34.99;94967.47;5055919;28;20025;-81
2022/08/10 08:34:08;;;;;;;11.07;6.43;;;;;;;28.78;35.55;94922.34;5072767;28;20474;-81
2022/08/10 08:36:34;;;;;;;9.00;7.20;;;;;;;29.10;35.52;94957.47;5072355;28;20071;-79
2022/08/10 08:38:59;;;;;;;8.20;6.68;;;;;;;29.22;35.34;94952.88;5072293;28;20064;-81
2022/08/10 08:41:57;;;;;;;7.97;6.90;;;;;;;29.31;35.55;94946.09;5072369;28;20043;-81
2022/08/10 08:44:54;;;;;;;8.95;6.38;;;;;;;29.37;34.38;94963.84;5071767;28;20039;-81
2022/08/10 08:47:51;;;;;;;6.03;5.20;;;;;;;29.49;33.93;94957.63;5073185;28;20028;-81
2022/08/10 08:50:44;;;;;;;6.90;6.15;;;;;;;29.52;34.04;94962.50;5049112;28;20052;-80
2022/08/10 08:53:37;;;;;;;7.65;6.07;;;;;;;29.51;34.32;94956.34;5072808;28;20411;-81
2022/08/10 08:56:20;;;;;;;7.97;6.80;;;;;;;29.28;34.87;94919.84;5072335;28;20461;-81
2022/08/10 08:59:04;;;;;;;9.60;7.22;;;;;;;29.44;34.82;94955.66;5071827;28;20024;-81
2022/08/10 09:01:53;;;;;;;7.05;6.28;;;;;;;29.48;34.90;94956.81;5073535;28;20032;-81
2022/08/10 09:04:46;;;;;;;7.07;5.95;;;;;;;29.38;33.84;94905.81;5073442;28;20041;-81
2022/08/10 09:07:45;;;;;;;6.72;6.05;;;;;;;29.64;33.82;94939.16;5073277;28;20050;-81
2022/08/10 09:10:10;;;;;;;6.63;5.50;;;;;;;29.77;32.87;94940.72;5072925;28;20036;-81
2022/08/10 09:12:53;;;;;;;6.03;5.18;;;;;;;29.61;31.56;94918.22;5073530;28;20025;-81
2022/08/10 09:15:31;;;;;;;6.07;5.22;;;;;;;29.81;33.20;94944.53;5071936;28;20040;-81
2022/08/10 09:18:06;;;;;;;5.45;4.95;;;;;;;29.55;32.64;94897.78;5072622;28;20032;-80
2022/08/10 09:20:38;;;;;;;7.47;5.35;;;;;;;29.65;32.46;94906.03;5072679;28;20037;-82
2022/08/10 09:23:08;;;;;;;7.95;5.13;;;;;;;29.90;32.55;94934.25;5072776;28;20040;-81
2022/08/10 09:25:38;;;;;;;7.97;5.43;;;;;;;29.68;33.02;94889.47;5072579;28;20082;-81
2022/08/10 09:28:13;;;;;;;6.90;5.80;;;;;;;29.73;32.70;94894.09;5071538;28;20503;-81
2022/08/10 09:30:53;;;;;;;8.80;5.82;;;;;;;30.04;32.47;94924.81;5071393;28;20517;-81
2022/08/10 09:33:22;;;;;;;7.93;5.55;;;;;;;29.89;33.55;94903.16;5072230;28;20035;-81
2022/08/10 09:35:54;;;;;;;7.82;6.25;;;;;;;30.08;33.30;94933.16;5071244;28;20032;-81
2022/08/10 09:38:46;;;;;;;6.53;5.78;;;;;;;29.83;32.07;94883.53;5072041;28;20145;-81
2022/08/10 09:41:19;;;;;;;7.47;5.55;;;;;;;29.66;32.92;94891.56;5071349;28;20066;-81
2022/08/10 09:43:55;;;;;;;6.88;5.95;;;;;;;30.03;33.08;94920.50;5070969;28;20024;-81
2022/08/10 09:46:58;;;;;;;6.63;5.93;;;;;;;30.09;33.30;94921.38;5071154;28;20121;-81
2022/08/10 09:49:34;;;;;;;7.15;6.00;;;;;;;30.12;33.14;94921.72;5071681;28;20037;-81
2022/08/10 09:52:06;;;;;;;8.30;6.20;;;;;;;30.20;34.03;94910.56;5070973;28;20081;-81
2022/08/10 09:55:14;;;;;;;7.47;6.03;;;;;;;30.33;32.84;94920.13;5070514;28;20081;-81
2022/08/10 09:58:11;;;;;;;8.60;5.85;;;;;;;30.38;33.05;94906.00;5051769;28;20045;-82
2022/08/10 10:00:39;;;;;;;8.13;5.55;;;;;;;30.31;31.78;94884.72;5037211;28;20418;-82
2022/08/10 10:03:15;;;;;;;7.95;4.88;;;;;;;30.50;31.21;94912.84;5070223;28;20025;-81
2022/08/10 10:06:09;;;;;;;6.70;4.47;;;;;;;30.50;31.21;94912.03;5070649;28;20021;-82
2022/08/10 10:08:50;;;;;;;6.88;4.25;;;;;;;30.44;32.39;94905.81;5070823;28;20129;-83
2022/08/10 10:11:20;;;;;;;5.53;4.00;;;;;;;30.34;32.22;94876.22;5071613;28;20062;-81
2022/08/10 10:13:54;;;;;;;7.43;4.30;;;;;;;30.33;31.69;94869.22;5053837;28;20037;-81
2022/08/10 10:16:41;;;;;;;6.10;3.80;;;;;;;30.50;31.25;94906.69;5071125;28;20490;-81
2022/08/10 10:19:25;;;;;;;6.68;3.97;;;;;;;30.48;31.26;94906.94;5071778;28;20041;-81
2022/08/10 10:22:12;;;;;;;5.40;3.88;;;;;;;30.29;31.38;94870.81;5071404;28;20101;-81
2022/08/10 10:24:51;;;;;;;5.28;3.78;;;;;;;30.23;31.87;94858.41;5053442;28;20498;-81
2022/08/10 10:27:26;;;;;;;6.18;3.67;;;;;;;30.58;32.05;94900.06;5070203;28;20047;-82
2022/08/10 10:30:08;;;;;;;7.32;3.67;;;;;;;30.23;31.49;94856.53;5071138;28;20096;-82
2022/08/10 10:32:56;;;;;;;4.78;3.85;;;;;;;30.49;31.43;94886.31;5070135;28;20464;-82
2022/08/10 10:35:37;;;;;;;7.50;3.78;;;;;;;30.51;30.61;94886.88;5070311;28;20050;-82
2022/08/10 10:38:07;;;;;;;6.22;4.10;;;;;;;30.35;31.83;94859.09;5069793;28;20119;-82
2022/08/10 10:40:35;;;;;;;;;;;;;;;30.61;31.05;94902.25;5070693;28;20043;-82
2022/08/10 10:43:12;;;;;;;7.28;3.50;;;;;;;30.56;30.75;94886.91;5070763;28;19919;-82
2022/08/10 10:46:03;;;;;;;7.22;3.38;;;;;;;30.46;30.82;94884.13;5071254;28;20113;-82
2022/08/10 10:48:46;;;;;;;4.88;3.60;;;;;;;30.16;31.16;94829.09;5069813;28;20036;-82
2022/08/10 10:51:41;;;;;;;6.78;4.00;;;;;;;30.43;31.89;94876.59;5070988;28;20521;-82
2022/08/10 10:54:07;;;;;;;4.93;3.75;;;;;;;30.47;31.87;94861.63;5050597;28;20091;-82
2022/08/10 10:56:50;;;;;;;4.15;3.40;;;;;;;30.31;31.50;94839.19;5071110;28;20529;-82
2022/08/10 10:59:34;;;;;;;5.45;3.88;;;;;;;30.58;31.33;94879.44;5070811;28;20064;-82
2022/08/10 11:02:22;;;;;;;5.97;3.70;;;;;;;30.40;31.81;94874.41;5070337;28;20056;-81
2022/08/10 11:05:03;;;;;;;6.97;4.00;;;;;;;30.42;31.62;94873.13;5069837;28;20033;-82
2022/08/10 11:07:34;;;;;;;5.05;3.80;;;;;;;30.44;31.91;94872.84;5070653;28;20036;-82
2022/08/10 11:10:06;;;;;;;7.85;4.05;;;;;;;30.21;32.29;94839.88;5052901;28;20516;-81
2022/08/10 11:12:46;;;;;;;5.47;3.67;;;;;;;30.27;32.40;94859.53;5069665;28;20028;-82
2022/08/10 11:15:30;;;;;;;6.50;4.00;;;;;;;30.09;31.94;94828.47;5071141;28;20032;-82
2022/08/10 11:18:22;;;;;;;5.88;3.90;;;;;;;30.31;32.41;94871.34;5069621;28;20036;-82
2022/08/10 11:21:04;;;;;;;6.28;3.50;;;;;;;29.93;33.05;94826.66;5069602;28;20495;-81
2022/08/10 11:23:53;;;;;;;6.28;4.20;;;;;;;30.32;32.49;94878.34;5069281;28;20112;-82
2022/08/10 11:26:23;;;;;;;5.82;3.80;;;;;;;30.24;33.00;94866.19;5070344;28;20036;-82
2022/08/10 11:28:51;;;;;;;7.78;4.22;;;;;;;30.19;33.37;94873.31;5069389;28;20115;-81
2022/08/10 11:31:18;;;;;;;7.22;4.07;;;;;;;30.13;32.94;94867.06;5070379;28;20039;-81
2022/08/10 11:33:58;;;;;;;4.65;4.00;;;;;;;30.11;33.83;94868.38;5069321;28;20029;-82
2022/08/10 11:36:46;;;;;;;5.43;4.10;;;;;;;30.15;33.16;94867.66;5070469;28;20517;-81
2022/08/10 11:39:35;;;;;;;6.25;3.85;;;;;;;30.07;33.25;94878.78;5070481;28;20078;-82
2022/08/10 11:42:15;;;;;;;9.25;4.20;;;;;;;29.51;33.31;94829.78;5070105;28;20029;-82
2022/08/10 11:44:50;;;;;;;5.45;4.30;;;;;;;29.73;33.42;94845.94;5069160;28;20491;-81
2022/08/10 11:47:21;;;;;;;5.95;4.07;;;;;;;29.64;34.06;94821.41;5069075;28;20033;-82
2022/08/10 11:50:20;;;;;;;4.22;3.80;;;;;;;30.01;33.37;94853.00;5070435;28;20025;-82
2022/08/10 11:53:04;;;;;;;5.15;4.03;;;;;;;30.11;33.05;94853.13;5069081;28;20096;-81
2022/08/10 11:55:31;;;;;;;8.18;3.70;;;;;;;29.91;32.94;94820.72;5070640;28;20048;-82